sensor_id;sensor_type;location;lat;lon;timestamp;P1;durP1;ratioP1;P2;durP2;ratioP2
3795;SDS011;1913;50.660;7.834;2024-03-08T00:00:12;31.93;;;17.23;;
3795;SDS011;1913;50.660;7.834;2024-03-08T00:02:41;37.97;;;17.97;;
3795;SDS011;1913;50.660;7.834;2024-03-08T00:05:07;32.60;;;18.23;;
3795;SDS011;1913;50.660;7.834;2024-03-08T00:07:36;40.17;;;19.00;;
3795;SDS011;1913;50.660;7.834;2024-03-08T00:10:02;29.23;;;17.43;;
3795;SDS011;1913;50.660;7.834;2024-03-08T00:12:27;32.97;;;17.60;;
3795;SDS011;1913;50.660;7.834;2024-03-08T00:14:53;31.83;;;18.30;;
3795;SDS011;1913;50.660;7.834;2024-03-08T00:17:19;35.43;;;19.03;;
3795;SDS011;1913;50.660;7.834;2024-03-08T00:19:44;32.60;;;17.83;;
3795;SDS011;1913;50.660;7.834;2024-03-08T00:22:09;35.20;;;17.93;;
3795;SDS011;1913;50.660;7.834;2024-03-08T00:24:36;33.73;;;18.00;;
3795;SDS011;1913;50.660;7.834;2024-03-08T00:27:02;33.13;;;18.83;;
3795;SDS011;1913;50.660;7.834;2024-03-08T00:29:27;34.73;;;19.17;;
3795;SDS011;1913;50.660;7.834;2024-03-08T00:31:52;34.70;;;18.17;;
3795;SDS011;1913;50.660;7.834;2024-03-08T00:34:17;32.13;;;17.43;;
3795;SDS011;1913;50.660;7.834;2024-03-08T00:36:43;31.80;;;17.67;;
3795;SDS011;1913;50.660;7.834;2024-03-08T00:39:09;29.30;;;17.53;;
3795;SDS011;1913;50.660;7.834;2024-03-08T00:41:34;34.37;;;18.27;;
3795;SDS011;1913;50.660;7.834;2024-03-08T00:43:59;33.70;;;17.27;;
3795;SDS011;1913;50.660;7.834;2024-03-08T00:46:25;35.70;;;18.10;;
3795;SDS011;1913;50.660;7.834;2024-03-08T00:48:50;41.33;;;19.50;;
3795;SDS011;1913;50.660;7.834;2024-03-08T00:51:15;36.53;;;18.47;;
3795;SDS011;1913;50.660;7.834;2024-03-08T00:53:41;45.07;;;19.70;;
3795;SDS011;1913;50.660;7.834;2024-03-08T00:56:07;34.00;;;17.70;;
3795;SDS011;1913;50.660;7.834;2024-03-08T00:58:35;33.70;;;18.60;;
3795;SDS011;1913;50.660;7.834;2024-03-08T01:01:01;28.40;;;16.50;;
3795;SDS011;1913;50.660;7.834;2024-03-08T01:03:26;34.37;;;17.77;;
3795;SDS011;1913;50.660;7.834;2024-03-08T01:05:51;36.60;;;18.07;;
3795;SDS011;1913;50.660;7.834;2024-03-08T01:08:16;36.80;;;17.60;;
3795;SDS011;1913;50.660;7.834;2024-03-08T01:10:42;30.23;;;16.80;;
3795;SDS011;1913;50.660;7.834;2024-03-08T01:13:07;29.67;;;17.30;;
3795;SDS011;1913;50.660;7.834;2024-03-08T01:15:32;35.67;;;17.80;;
3795;SDS011;1913;50.660;7.834;2024-03-08T01:17:57;34.80;;;18.70;;
3795;SDS011;1913;50.660;7.834;2024-03-08T01:20:23;31.60;;;17.57;;
3795;SDS011;1913;50.660;7.834;2024-03-08T01:22:48;34.07;;;18.43;;
3795;SDS011;1913;50.660;7.834;2024-03-08T01:25:14;35.47;;;17.33;;
3795;SDS011;1913;50.660;7.834;2024-03-08T01:27:39;32.20;;;17.80;;
3795;SDS011;1913;50.660;7.834;2024-03-08T01:30:04;36.70;;;18.60;;
3795;SDS011;1913;50.660;7.834;2024-03-08T01:32:30;31.33;;;17.17;;
3795;SDS011;1913;50.660;7.834;2024-03-08T01:34:55;35.90;;;18.33;;
3795;SDS011;1913;50.660;7.834;2024-03-08T01:37:20;37.20;;;17.40;;
3795;SDS011;1913;50.660;7.834;2024-03-08T01:39:45;33.30;;;17.23;;
3795;SDS011;1913;50.660;7.834;2024-03-08T01:42:10;31.50;;;17.03;;
3795;SDS011;1913;50.660;7.834;2024-03-08T01:44:38;33.30;;;17.03;;
3795;SDS011;1913;50.660;7.834;2024-03-08T01:47:04;34.73;;;19.17;;
3795;SDS011;1913;50.660;7.834;2024-03-08T01:49:30;33.43;;;17.30;;
3795;SDS011;1913;50.660;7.834;2024-03-08T01:51:55;33.30;;;18.43;;
3795;SDS011;1913;50.660;7.834;2024-03-08T01:54:21;30.90;;;18.03;;
3795;SDS011;1913;50.660;7.834;2024-03-08T01:56:48;31.13;;;17.20;;
3795;SDS011;1913;50.660;7.834;2024-03-08T01:59:13;35.40;;;16.80;;
3795;SDS011;1913;50.660;7.834;2024-03-08T02:01:39;31.70;;;16.70;;
3795;SDS011;1913;50.660;7.834;2024-03-08T02:04:04;32.33;;;18.23;;
3795;SDS011;1913;50.660;7.834;2024-03-08T02:06:32;34.30;;;16.90;;
3795;SDS011;1913;50.660;7.834;2024-03-08T02:08:57;30.60;;;17.70;;
3795;SDS011;1913;50.660;7.834;2024-03-08T02:11:22;36.40;;;19.20;;
3795;SDS011;1913;50.660;7.834;2024-03-08T02:13:47;33.73;;;18.23;;
3795;SDS011;1913;50.660;7.834;2024-03-08T02:16:19;35.60;;;18.60;;
3795;SDS011;1913;50.660;7.834;2024-03-08T02:18:45;34.73;;;18.80;;
3795;SDS011;1913;50.660;7.834;2024-03-08T02:21:10;37.13;;;17.20;;
3795;SDS011;1913;50.660;7.834;2024-03-08T02:23:35;32.47;;;17.27;;
3795;SDS011;1913;50.660;7.834;2024-03-08T02:26:02;35.40;;;17.60;;
3795;SDS011;1913;50.660;7.834;2024-03-08T02:28:29;37.50;;;18.73;;
3795;SDS011;1913;50.660;7.834;2024-03-08T02:30:55;37.43;;;17.93;;
3795;SDS011;1913;50.660;7.834;2024-03-08T02:33:20;30.97;;;17.50;;
3795;SDS011;1913;50.660;7.834;2024-03-08T02:35:46;40.10;;;19.63;;
3795;SDS011;1913;50.660;7.834;2024-03-08T02:38:21;35.40;;;19.07;;
3795;SDS011;1913;50.660;7.834;2024-03-08T02:40:48;34.20;;;18.33;;
3795;SDS011;1913;50.660;7.834;2024-03-08T02:43:13;36.23;;;18.37;;
3795;SDS011;1913;50.660;7.834;2024-03-08T02:45:39;33.80;;;17.90;;
3795;SDS011;1913;50.660;7.834;2024-03-08T02:48:05;34.27;;;17.73;;
3795;SDS011;1913;50.660;7.834;2024-03-08T02:50:33;34.10;;;17.70;;
3795;SDS011;1913;50.660;7.834;2024-03-08T02:53:00;33.10;;;17.03;;
3795;SDS011;1913;50.660;7.834;2024-03-08T02:55:25;31.10;;;17.30;;
3795;SDS011;1913;50.660;7.834;2024-03-08T02:57:51;33.20;;;18.67;;
3795;SDS011;1913;50.660;7.834;2024-03-08T03:00:16;34.47;;;18.77;;
3795;SDS011;1913;50.660;7.834;2024-03-08T03:02:41;36.43;;;18.97;;
3795;SDS011;1913;50.660;7.834;2024-03-08T03:05:07;33.77;;;18.30;;
3795;SDS011;1913;50.660;7.834;2024-03-08T03:07:34;34.67;;;18.27;;
3795;SDS011;1913;50.660;7.834;2024-03-08T03:10:00;33.70;;;17.53;;
3795;SDS011;1913;50.660;7.834;2024-03-08T03:12:26;35.70;;;18.13;;
3795;SDS011;1913;50.660;7.834;2024-03-08T03:14:51;33.07;;;19.00;;
3795;SDS011;1913;50.660;7.834;2024-03-08T03:17:17;38.87;;;19.57;;
3795;SDS011;1913;50.660;7.834;2024-03-08T03:19:42;35.50;;;18.43;;
3795;SDS011;1913;50.660;7.834;2024-03-08T03:22:07;30.60;;;17.10;;
3795;SDS011;1913;50.660;7.834;2024-03-08T03:24:34;37.70;;;18.80;;
3795;SDS011;1913;50.660;7.834;2024-03-08T03:27:01;31.70;;;18.17;;
3795;SDS011;1913;50.660;7.834;2024-03-08T03:29:26;33.20;;;18.97;;
3795;SDS011;1913;50.660;7.834;2024-03-08T03:31:51;35.27;;;18.30;;
3795;SDS011;1913;50.660;7.834;2024-03-08T03:34:17;36.00;;;18.80;;
3795;SDS011;1913;50.660;7.834;2024-03-08T03:36:43;35.40;;;18.50;;
3795;SDS011;1913;50.660;7.834;2024-03-08T03:39:10;38.00;;;19.23;;
3795;SDS011;1913;50.660;7.834;2024-03-08T03:41:41;37.73;;;20.17;;
3795;SDS011;1913;50.660;7.834;2024-03-08T03:44:06;34.00;;;18.33;;
3795;SDS011;1913;50.660;7.834;2024-03-08T03:46:32;36.50;;;18.40;;
3795;SDS011;1913;50.660;7.834;2024-03-08T03:48:57;38.43;;;19.07;;
3795;SDS011;1913;50.660;7.834;2024-03-08T03:51:23;37.90;;;19.73;;
3795;SDS011;1913;50.660;7.834;2024-03-08T03:53:48;35.57;;;18.83;;
3795;SDS011;1913;50.660;7.834;2024-03-08T03:56:13;32.40;;;17.60;;
3795;SDS011;1913;50.660;7.834;2024-03-08T03:58:39;39.33;;;20.47;;
3795;SDS011;1913;50.660;7.834;2024-03-08T04:01:04;42.50;;;19.80;;
3795;SDS011;1913;50.660;7.834;2024-03-08T04:03:30;41.00;;;20.00;;
3795;SDS011;1913;50.660;7.834;2024-03-08T04:05:55;37.70;;;20.37;;
3795;SDS011;1913;50.660;7.834;2024-03-08T04:08:20;38.83;;;17.23;;
3795;SDS011;1913;50.660;7.834;2024-03-08T04:10:45;40.97;;;19.30;;
3795;SDS011;1913;50.660;7.834;2024-03-08T04:13:14;37.63;;;19.70;;
3795;SDS011;1913;50.660;7.834;2024-03-08T04:15:40;34.00;;;18.80;;
3795;SDS011;1913;50.660;7.834;2024-03-08T04:18:05;36.87;;;20.10;;
3795;SDS011;1913;50.660;7.834;2024-03-08T04:20:34;36.13;;;18.90;;
3795;SDS011;1913;50.660;7.834;2024-03-08T04:22:59;35.70;;;19.20;;
3795;SDS011;1913;50.660;7.834;2024-03-08T04:25:25;39.27;;;18.53;;
3795;SDS011;1913;50.660;7.834;2024-03-08T04:27:50;36.33;;;18.33;;
3795;SDS011;1913;50.660;7.834;2024-03-08T04:30:17;43.13;;;20.00;;
3795;SDS011;1913;50.660;7.834;2024-03-08T04:32:42;41.47;;;19.60;;
3795;SDS011;1913;50.660;7.834;2024-03-08T04:35:08;39.83;;;19.90;;
3795;SDS011;1913;50.660;7.834;2024-03-08T04:37:33;39.57;;;20.00;;
3795;SDS011;1913;50.660;7.834;2024-03-08T04:39:59;40.73;;;19.60;;
3795;SDS011;1913;50.660;7.834;2024-03-08T04:42:24;38.53;;;18.70;;
3795;SDS011;1913;50.660;7.834;2024-03-08T04:44:50;40.90;;;19.93;;
3795;SDS011;1913;50.660;7.834;2024-03-08T04:47:15;36.20;;;18.50;;
3795;SDS011;1913;50.660;7.834;2024-03-08T04:49:42;37.67;;;19.40;;
3795;SDS011;1913;50.660;7.834;2024-03-08T04:52:08;35.40;;;18.93;;
3795;SDS011;1913;50.660;7.834;2024-03-08T04:54:33;37.93;;;19.83;;
3795;SDS011;1913;50.660;7.834;2024-03-08T04:56:59;36.20;;;18.17;;
3795;SDS011;1913;50.660;7.834;2024-03-08T04:59:25;38.57;;;20.03;;
3795;SDS011;1913;50.660;7.834;2024-03-08T05:01:50;40.53;;;20.67;;
3795;SDS011;1913;50.660;7.834;2024-03-08T05:04:16;39.80;;;19.70;;
3795;SDS011;1913;50.660;7.834;2024-03-08T05:06:41;40.43;;;20.17;;
3795;SDS011;1913;50.660;7.834;2024-03-08T05:09:06;38.70;;;20.43;;
3795;SDS011;1913;50.660;7.834;2024-03-08T05:11:44;40.63;;;20.60;;
3795;SDS011;1913;50.660;7.834;2024-03-08T05:14:10;42.93;;;21.57;;
3795;SDS011;1913;50.660;7.834;2024-03-08T05:16:35;35.10;;;19.13;;
3795;SDS011;1913;50.660;7.834;2024-03-08T05:19:01;41.67;;;21.53;;
3795;SDS011;1913;50.660;7.834;2024-03-08T05:21:26;42.03;;;21.03;;
3795;SDS011;1913;50.660;7.834;2024-03-08T05:23:51;41.00;;;19.30;;
3795;SDS011;1913;50.660;7.834;2024-03-08T05:26:16;39.23;;;19.80;;
3795;SDS011;1913;50.660;7.834;2024-03-08T05:28:42;45.93;;;22.00;;
3795;SDS011;1913;50.660;7.834;2024-03-08T05:31:07;45.23;;;21.20;;
3795;SDS011;1913;50.660;7.834;2024-03-08T05:33:33;38.27;;;19.10;;
3795;SDS011;1913;50.660;7.834;2024-03-08T05:35:59;40.83;;;19.77;;
3795;SDS011;1913;50.660;7.834;2024-03-08T05:38:25;42.43;;;19.90;;
3795;SDS011;1913;50.660;7.834;2024-03-08T05:40:50;43.53;;;19.90;;
3795;SDS011;1913;50.660;7.834;2024-03-08T05:43:16;41.57;;;21.17;;
3795;SDS011;1913;50.660;7.834;2024-03-08T05:45:44;36.27;;;19.93;;
3795;SDS011;1913;50.660;7.834;2024-03-08T05:48:09;41.83;;;20.73;;
3795;SDS011;1913;50.660;7.834;2024-03-08T05:50:34;38.70;;;19.00;;
3795;SDS011;1913;50.660;7.834;2024-03-08T05:53:00;38.13;;;20.20;;
3795;SDS011;1913;50.660;7.834;2024-03-08T05:55:25;42.97;;;19.80;;
3795;SDS011;1913;50.660;7.834;2024-03-08T05:57:50;34.97;;;18.00;;
3795;SDS011;1913;50.660;7.834;2024-03-08T06:00:15;36.60;;;18.73;;
3795;SDS011;1913;50.660;7.834;2024-03-08T06:02:41;37.10;;;20.10;;
3795;SDS011;1913;50.660;7.834;2024-03-08T06:05:10;42.13;;;20.80;;
3795;SDS011;1913;50.660;7.834;2024-03-08T06:07:36;41.30;;;21.13;;
3795;SDS011;1913;50.660;7.834;2024-03-08T06:10:01;40.63;;;21.37;;
3795;SDS011;1913;50.660;7.834;2024-03-08T06:12:26;38.93;;;20.13;;
3795;SDS011;1913;50.660;7.834;2024-03-08T06:14:54;35.30;;;19.03;;
3795;SDS011;1913;50.660;7.834;2024-03-08T06:17:19;42.43;;;20.60;;
3795;SDS011;1913;50.660;7.834;2024-03-08T06:19:44;42.97;;;19.07;;
3795;SDS011;1913;50.660;7.834;2024-03-08T06:22:09;43.43;;;20.63;;
3795;SDS011;1913;50.660;7.834;2024-03-08T06:24:35;37.63;;;19.47;;
3795;SDS011;1913;50.660;7.834;2024-03-08T06:27:02;36.00;;;18.83;;
3795;SDS011;1913;50.660;7.834;2024-03-08T06:29:27;35.10;;;18.60;;
3795;SDS011;1913;50.660;7.834;2024-03-08T06:31:53;37.20;;;18.57;;
3795;SDS011;1913;50.660;7.834;2024-03-08T06:34:18;37.30;;;19.50;;
3795;SDS011;1913;50.660;7.834;2024-03-08T06:36:43;35.77;;;17.63;;
3795;SDS011;1913;50.660;7.834;2024-03-08T06:39:09;42.90;;;21.50;;
3795;SDS011;1913;50.660;7.834;2024-03-08T06:41:35;35.83;;;18.90;;
3795;SDS011;1913;50.660;7.834;2024-03-08T06:44:00;35.97;;;19.63;;
3795;SDS011;1913;50.660;7.834;2024-03-08T06:46:26;35.40;;;18.87;;
3795;SDS011;1913;50.660;7.834;2024-03-08T06:48:51;38.23;;;19.87;;
3795;SDS011;1913;50.660;7.834;2024-03-08T06:51:16;35.63;;;19.47;;
3795;SDS011;1913;50.660;7.834;2024-03-08T06:53:42;41.83;;;20.37;;
3795;SDS011;1913;50.660;7.834;2024-03-08T06:56:07;34.50;;;18.00;;
3795;SDS011;1913;50.660;7.834;2024-03-08T06:58:32;35.53;;;17.93;;
3795;SDS011;1913;50.660;7.834;2024-03-08T07:00:58;35.90;;;18.70;;
3795;SDS011;1913;50.660;7.834;2024-03-08T07:03:25;31.03;;;17.90;;
3795;SDS011;1913;50.660;7.834;2024-03-08T07:05:51;35.57;;;20.00;;
3795;SDS011;1913;50.660;7.834;2024-03-08T07:08:17;33.60;;;17.97;;
3795;SDS011;1913;50.660;7.834;2024-03-08T07:10:43;35.20;;;17.97;;
3795;SDS011;1913;50.660;7.834;2024-03-08T07:13:10;33.70;;;18.20;;
3795;SDS011;1913;50.660;7.834;2024-03-08T07:15:35;33.80;;;18.77;;
3795;SDS011;1913;50.660;7.834;2024-03-08T07:18:01;33.53;;;19.10;;
3795;SDS011;1913;50.660;7.834;2024-03-08T07:20:26;33.00;;;17.47;;
3795;SDS011;1913;50.660;7.834;2024-03-08T07:22:53;31.17;;;17.47;;
3795;SDS011;1913;50.660;7.834;2024-03-08T07:25:18;32.67;;;17.00;;
3795;SDS011;1913;50.660;7.834;2024-03-08T07:27:53;30.90;;;18.33;;
3795;SDS011;1913;50.660;7.834;2024-03-08T07:30:28;34.20;;;17.53;;
3795;SDS011;1913;50.660;7.834;2024-03-08T07:33:08;26.97;;;15.43;;
3795;SDS011;1913;50.660;7.834;2024-03-08T07:35:36;34.00;;;17.97;;
3795;SDS011;1913;50.660;7.834;2024-03-08T07:38:05;32.43;;;17.97;;
3795;SDS011;1913;50.660;7.834;2024-03-08T07:40:31;31.37;;;16.90;;
3795;SDS011;1913;50.660;7.834;2024-03-08T07:42:56;31.43;;;17.73;;
3795;SDS011;1913;50.660;7.834;2024-03-08T07:45:21;29.53;;;16.40;;
3795;SDS011;1913;50.660;7.834;2024-03-08T07:47:47;31.93;;;17.27;;
3795;SDS011;1913;50.660;7.834;2024-03-08T07:50:12;33.53;;;16.43;;
3795;SDS011;1913;50.660;7.834;2024-03-08T07:52:41;28.93;;;16.00;;
3795;SDS011;1913;50.660;7.834;2024-03-08T07:55:06;30.20;;;17.37;;
3795;SDS011;1913;50.660;7.834;2024-03-08T07:57:32;29.00;;;15.47;;
3795;SDS011;1913;50.660;7.834;2024-03-08T07:59:58;29.20;;;16.10;;
3795;SDS011;1913;50.660;7.834;2024-03-08T08:02:23;28.57;;;15.80;;
3795;SDS011;1913;50.660;7.834;2024-03-08T08:04:49;27.40;;;16.30;;
3795;SDS011;1913;50.660;7.834;2024-03-08T08:07:14;32.07;;;16.70;;
3795;SDS011;1913;50.660;7.834;2024-03-08T08:09:39;31.30;;;17.10;;
3795;SDS011;1913;50.660;7.834;2024-03-08T08:12:05;27.90;;;16.17;;
3795;SDS011;1913;50.660;7.834;2024-03-08T08:14:30;26.67;;;15.93;;
3795;SDS011;1913;50.660;7.834;2024-03-08T08:16:56;28.00;;;16.60;;
3795;SDS011;1913;50.660;7.834;2024-03-08T08:19:22;26.67;;;16.37;;
3795;SDS011;1913;50.660;7.834;2024-03-08T08:21:47;30.83;;;17.30;;
3795;SDS011;1913;50.660;7.834;2024-03-08T08:24:12;28.70;;;16.27;;
3795;SDS011;1913;50.660;7.834;2024-03-08T08:26:38;27.40;;;15.37;;
3795;SDS011;1913;50.660;7.834;2024-03-08T08:29:03;27.10;;;15.87;;
3795;SDS011;1913;50.660;7.834;2024-03-08T08:31:28;27.30;;;15.27;;
3795;SDS011;1913;50.660;7.834;2024-03-08T08:33:54;28.80;;;16.37;;
3795;SDS011;1913;50.660;7.834;2024-03-08T08:36:23;28.07;;;14.90;;
3795;SDS011;1913;50.660;7.834;2024-03-08T08:38:48;30.23;;;15.23;;
3795;SDS011;1913;50.660;7.834;2024-03-08T08:41:14;26.50;;;15.37;;
3795;SDS011;1913;50.660;7.834;2024-03-08T08:43:39;27.93;;;15.70;;
3795;SDS011;1913;50.660;7.834;2024-03-08T08:46:04;24.73;;;15.40;;
3795;SDS011;1913;50.660;7.834;2024-03-08T08:48:29;26.23;;;15.07;;
3795;SDS011;1913;50.660;7.834;2024-03-08T08:50:55;28.03;;;16.00;;
3795;SDS011;1913;50.660;7.834;2024-03-08T08:53:21;27.30;;;15.90;;
3795;SDS011;1913;50.660;7.834;2024-03-08T08:55:47;22.97;;;14.20;;
3795;SDS011;1913;50.660;7.834;2024-03-08T08:58:12;26.00;;;15.03;;
3795;SDS011;1913;50.660;7.834;2024-03-08T09:00:38;24.63;;;15.17;;
3795;SDS011;1913;50.660;7.834;2024-03-08T09:03:04;22.67;;;14.30;;
3795;SDS011;1913;50.660;7.834;2024-03-08T09:05:31;27.13;;;15.53;;
3795;SDS011;1913;50.660;7.834;2024-03-08T09:07:57;23.90;;;15.37;;
3795;SDS011;1913;50.660;7.834;2024-03-08T09:10:25;26.27;;;14.97;;
3795;SDS011;1913;50.660;7.834;2024-03-08T09:12:50;27.30;;;15.53;;
3795;SDS011;1913;50.660;7.834;2024-03-08T09:15:15;26.60;;;15.43;;
3795;SDS011;1913;50.660;7.834;2024-03-08T09:17:42;22.90;;;14.07;;
3795;SDS011;1913;50.660;7.834;2024-03-08T09:20:09;22.43;;;14.50;;
3795;SDS011;1913;50.660;7.834;2024-03-08T09:22:45;21.90;;;14.30;;
3795;SDS011;1913;50.660;7.834;2024-03-08T09:25:10;27.90;;;16.20;;
3795;SDS011;1913;50.660;7.834;2024-03-08T09:27:36;26.30;;;14.27;;
3795;SDS011;1913;50.660;7.834;2024-03-08T09:30:02;25.97;;;14.40;;
3795;SDS011;1913;50.660;7.834;2024-03-08T09:32:27;24.53;;;15.13;;
3795;SDS011;1913;50.660;7.834;2024-03-08T09:34:52;22.50;;;14.50;;
3795;SDS011;1913;50.660;7.834;2024-03-08T09:37:17;25.13;;;14.97;;
3795;SDS011;1913;50.660;7.834;2024-03-08T09:39:43;22.40;;;14.30;;
3795;SDS011;1913;50.660;7.834;2024-03-08T09:42:09;25.27;;;15.00;;
3795;SDS011;1913;50.660;7.834;2024-03-08T09:44:35;22.43;;;14.20;;
3795;SDS011;1913;50.660;7.834;2024-03-08T09:47:01;26.97;;;14.97;;
3795;SDS011;1913;50.660;7.834;2024-03-08T09:49:29;24.27;;;14.63;;
3795;SDS011;1913;50.660;7.834;2024-03-08T09:51:55;22.23;;;13.50;;
3795;SDS011;1913;50.660;7.834;2024-03-08T09:54:21;22.90;;;14.30;;
3795;SDS011;1913;50.660;7.834;2024-03-08T09:56:47;23.33;;;14.90;;
3795;SDS011;1913;50.660;7.834;2024-03-08T09:59:13;21.33;;;14.17;;
3795;SDS011;1913;50.660;7.834;2024-03-08T10:02:01;20.07;;;13.47;;
3795;SDS011;1913;50.660;7.834;2024-03-08T10:04:28;21.13;;;13.97;;
3795;SDS011;1913;50.660;7.834;2024-03-08T10:06:57;26.03;;;13.80;;
3795;SDS011;1913;50.660;7.834;2024-03-08T10:09:24;25.23;;;14.23;;
3795;SDS011;1913;50.660;7.834;2024-03-08T10:11:53;24.40;;;14.37;;
3795;SDS011;1913;50.660;7.834;2024-03-08T10:14:20;22.00;;;13.63;;
3795;SDS011;1913;50.660;7.834;2024-03-08T10:16:46;21.67;;;14.00;;
3795;SDS011;1913;50.660;7.834;2024-03-08T10:19:12;23.73;;;14.53;;
3795;SDS011;1913;50.660;7.834;2024-03-08T10:21:47;25.83;;;14.33;;
3795;SDS011;1913;50.660;7.834;2024-03-08T10:24:12;21.07;;;12.43;;
3795;SDS011;1913;50.660;7.834;2024-03-08T10:26:38;21.43;;;13.80;;
3795;SDS011;1913;50.660;7.834;2024-03-08T10:29:04;21.83;;;13.60;;
3795;SDS011;1913;50.660;7.834;2024-03-08T10:31:30;22.50;;;13.23;;
3795;SDS011;1913;50.660;7.834;2024-03-08T10:33:58;19.90;;;13.73;;
3795;SDS011;1913;50.660;7.834;2024-03-08T10:36:23;18.67;;;12.97;;
3795;SDS011;1913;50.660;7.834;2024-03-08T10:38:50;22.37;;;13.90;;
3795;SDS011;1913;50.660;7.834;2024-03-08T10:41:18;18.70;;;11.60;;
3795;SDS011;1913;50.660;7.834;2024-03-08T10:46:47;19.53;;;12.87;;
3795;SDS011;1913;50.660;7.834;2024-03-08T10:49:16;20.10;;;12.67;;
3795;SDS011;1913;50.660;7.834;2024-03-08T10:51:42;19.10;;;12.17;;
3795;SDS011;1913;50.660;7.834;2024-03-08T10:54:07;15.10;;;10.77;;
3795;SDS011;1913;50.660;7.834;2024-03-08T10:56:34;21.33;;;11.27;;
3795;SDS011;1913;50.660;7.834;2024-03-08T10:59:00;19.83;;;12.23;;
3795;SDS011;1913;50.660;7.834;2024-03-08T11:01:25;17.23;;;10.23;;
3795;SDS011;1913;50.660;7.834;2024-03-08T11:03:51;16.10;;;11.13;;
3795;SDS011;1913;50.660;7.834;2024-03-08T11:06:19;18.10;;;11.13;;
3795;SDS011;1913;50.660;7.834;2024-03-08T11:08:48;15.47;;;10.47;;
3795;SDS011;1913;50.660;7.834;2024-03-08T11:11:25;19.03;;;11.50;;
3795;SDS011;1913;50.660;7.834;2024-03-08T11:13:57;17.33;;;11.20;;
3795;SDS011;1913;50.660;7.834;2024-03-08T11:19:33;19.70;;;12.17;;
3795;SDS011;1913;50.660;7.834;2024-03-08T11:21:39;17.67;;;11.37;;
3795;SDS011;1913;50.660;7.834;2024-03-08T11:24:12;19.40;;;10.97;;
3795;SDS011;1913;50.660;7.834;2024-03-08T11:26:38;19.90;;;10.10;;
3795;SDS011;1913;50.660;7.834;2024-03-08T11:31:49;15.00;;;10.27;;
3795;SDS011;1913;50.660;7.834;2024-03-08T11:34:17;16.93;;;9.87;;
3795;SDS011;1913;50.660;7.834;2024-03-08T11:36:44;15.63;;;10.43;;
3795;SDS011;1913;50.660;7.834;2024-03-08T11:39:12;12.53;;;9.50;;
3795;SDS011;1913;50.660;7.834;2024-03-08T11:41:39;15.27;;;10.00;;
3795;SDS011;1913;50.660;7.834;2024-03-08T11:44:06;12.37;;;9.00;;
3795;SDS011;1913;50.660;7.834;2024-03-08T11:48:58;13.30;;;9.63;;
3795;SDS011;1913;50.660;7.834;2024-03-08T11:51:25;17.90;;;9.43;;
3795;SDS011;1913;50.660;7.834;2024-03-08T11:53:50;16.63;;;10.50;;
3795;SDS011;1913;50.660;7.834;2024-03-08T11:56:16;15.07;;;9.13;;
3795;SDS011;1913;50.660;7.834;2024-03-08T11:58:41;15.03;;;10.37;;
3795;SDS011;1913;50.660;7.834;2024-03-08T12:01:07;16.90;;;10.33;;
3795;SDS011;1913;50.660;7.834;2024-03-08T12:03:32;15.27;;;9.93;;
3795;SDS011;1913;50.660;7.834;2024-03-08T12:06:01;15.33;;;10.70;;
3795;SDS011;1913;50.660;7.834;2024-03-08T12:08:27;18.93;;;11.63;;
3795;SDS011;1913;50.660;7.834;2024-03-08T12:10:55;18.73;;;12.60;;
3795;SDS011;1913;50.660;7.834;2024-03-08T12:13:25;20.73;;;13.30;;
3795;SDS011;1913;50.660;7.834;2024-03-08T12:15:50;18.70;;;12.80;;
3795;SDS011;1913;50.660;7.834;2024-03-08T12:18:15;20.50;;;12.77;;
3795;SDS011;1913;50.660;7.834;2024-03-08T12:20:41;18.57;;;13.33;;
3795;SDS011;1913;50.660;7.834;2024-03-08T12:23:14;20.40;;;13.67;;
3795;SDS011;1913;50.660;7.834;2024-03-08T12:25:40;20.70;;;13.60;;
3795;SDS011;1913;50.660;7.834;2024-03-08T12:28:12;21.80;;;13.07;;
3795;SDS011;1913;50.660;7.834;2024-03-08T12:30:50;20.60;;;12.77;;
3795;SDS011;1913;50.660;7.834;2024-03-08T12:33:18;21.70;;;14.10;;
3795;SDS011;1913;50.660;7.834;2024-03-08T12:35:50;18.73;;;12.13;;
3795;SDS011;1913;50.660;7.834;2024-03-08T12:38:15;18.53;;;12.43;;
3795;SDS011;1913;50.660;7.834;2024-03-08T12:40:40;20.70;;;12.73;;
3795;SDS011;1913;50.660;7.834;2024-03-08T12:43:07;19.00;;;12.60;;
3795;SDS011;1913;50.660;7.834;2024-03-08T12:45:32;24.20;;;14.00;;
3795;SDS011;1913;50.660;7.834;2024-03-08T12:47:57;19.10;;;12.17;;
3795;SDS011;1913;50.660;7.834;2024-03-08T12:50:24;19.87;;;11.67;;
3795;SDS011;1913;50.660;7.834;2024-03-08T12:52:52;19.63;;;12.40;;
3795;SDS011;1913;50.660;7.834;2024-03-08T12:55:20;20.07;;;12.97;;
3795;SDS011;1913;50.660;7.834;2024-03-08T12:57:46;20.40;;;13.70;;
3795;SDS011;1913;50.660;7.834;2024-03-08T13:00:12;21.00;;;12.77;;
3795;SDS011;1913;50.660;7.834;2024-03-08T13:02:48;17.87;;;12.43;;
3795;SDS011;1913;50.660;7.834;2024-03-08T13:05:14;19.43;;;12.63;;
3795;SDS011;1913;50.660;7.834;2024-03-08T13:07:40;18.50;;;13.13;;
3795;SDS011;1913;50.660;7.834;2024-03-08T13:10:06;22.00;;;12.00;;
3795;SDS011;1913;50.660;7.834;2024-03-08T13:12:32;16.83;;;11.47;;
3795;SDS011;1913;50.660;7.834;2024-03-08T13:14:58;15.53;;;11.30;;
3795;SDS011;1913;50.660;7.834;2024-03-08T13:17:23;15.50;;;10.20;;
3795;SDS011;1913;50.660;7.834;2024-03-08T13:19:48;11.10;;;8.33;;
3795;SDS011;1913;50.660;7.834;2024-03-08T13:22:13;13.30;;;8.87;;
3795;SDS011;1913;50.660;7.834;2024-03-08T13:24:41;13.00;;;8.70;;
3795;SDS011;1913;50.660;7.834;2024-03-08T13:27:07;15.70;;;9.07;;
3795;SDS011;1913;50.660;7.834;2024-03-08T13:29:44;13.90;;;8.93;;
3795;SDS011;1913;50.660;7.834;2024-03-08T13:32:09;11.07;;;8.20;;
3795;SDS011;1913;50.660;7.834;2024-03-08T13:34:37;14.63;;;8.47;;
3795;SDS011;1913;50.660;7.834;2024-03-08T13:37:02;12.67;;;8.17;;
3795;SDS011;1913;50.660;7.834;2024-03-08T13:39:31;12.10;;;8.20;;
3795;SDS011;1913;50.660;7.834;2024-03-08T13:42:05;12.60;;;8.50;;
3795;SDS011;1913;50.660;7.834;2024-03-08T13:44:34;11.90;;;8.70;;
3795;SDS011;1913;50.660;7.834;2024-03-08T13:46:59;12.57;;;8.57;;
3795;SDS011;1913;50.660;7.834;2024-03-08T13:49:25;13.77;;;9.43;;
3795;SDS011;1913;50.660;7.834;2024-03-08T13:51:51;13.87;;;8.90;;
3795;SDS011;1913;50.660;7.834;2024-03-08T13:54:16;14.70;;;9.73;;
3795;SDS011;1913;50.660;7.834;2024-03-08T13:56:42;15.33;;;9.30;;
3795;SDS011;1913;50.660;7.834;2024-03-08T13:59:09;14.43;;;9.43;;
3795;SDS011;1913;50.660;7.834;2024-03-08T14:01:34;14.40;;;9.03;;
3795;SDS011;1913;50.660;7.834;2024-03-08T14:04:00;21.17;;;11.20;;
3795;SDS011;1913;50.660;7.834;2024-03-08T14:06:26;14.73;;;9.50;;
3795;SDS011;1913;50.660;7.834;2024-03-08T14:08:51;15.77;;;9.73;;
3795;SDS011;1913;50.660;7.834;2024-03-08T14:11:16;14.77;;;10.00;;
3795;SDS011;1913;50.660;7.834;2024-03-08T14:13:43;18.33;;;9.43;;
3795;SDS011;1913;50.660;7.834;2024-03-08T14:16:10;16.80;;;9.90;;
3795;SDS011;1913;50.660;7.834;2024-03-08T14:18:36;14.90;;;9.67;;
3795;SDS011;1913;50.660;7.834;2024-03-08T14:21:01;14.40;;;9.80;;
3795;SDS011;1913;50.660;7.834;2024-03-08T14:23:27;17.67;;;10.50;;
3795;SDS011;1913;50.660;7.834;2024-03-08T14:25:52;15.60;;;9.90;;
3795;SDS011;1913;50.660;7.834;2024-03-08T14:28:17;18.00;;;10.90;;
3795;SDS011;1913;50.660;7.834;2024-03-08T14:30:44;19.03;;;10.57;;
3795;SDS011;1913;50.660;7.834;2024-03-08T14:33:09;18.47;;;10.80;;
3795;SDS011;1913;50.660;7.834;2024-03-08T14:35:35;18.47;;;11.33;;
3795;SDS011;1913;50.660;7.834;2024-03-08T14:38:00;19.00;;;11.30;;
3795;SDS011;1913;50.660;7.834;2024-03-08T14:40:26;18.67;;;11.53;;
3795;SDS011;1913;50.660;7.834;2024-03-08T14:42:51;17.43;;;11.37;;
3795;SDS011;1913;50.660;7.834;2024-03-08T14:45:16;16.47;;;10.67;;
3795;SDS011;1913;50.660;7.834;2024-03-08T14:47:44;18.27;;;11.30;;
3795;SDS011;1913;50.660;7.834;2024-03-08T14:50:10;14.80;;;10.20;;
3795;SDS011;1913;50.660;7.834;2024-03-08T14:52:36;20.63;;;11.83;;